createdAt,value
2018-02-04T00:00:06.814Z,12.90
2018-02-04T00:02:32.755Z,13.07
2018-02-04T00:05:09.114Z,13.87
2018-02-04T00:07:38.744Z,13.30
2018-02-04T00:10:08.104Z,13.77
2018-02-04T00:12:40.509Z,13.30
2018-02-04T00:15:06.446Z,12.80
2018-02-04T00:17:32.322Z,13.07
2018-02-04T00:19:59.233Z,12.57
2018-02-04T00:22:37.766Z,12.87
2018-02-04T00:25:03.703Z,13.73
2018-02-04T00:27:33.670Z,12.80
2018-02-04T00:30:10.020Z,12.97
2018-02-04T00:32:38.001Z,13.00
2018-02-04T00:35:12.815Z,13.00
2018-02-04T00:37:38.716Z,12.13
2018-02-04T00:40:04.579Z,12.60
2018-02-04T00:42:30.440Z,12.53
2018-02-04T00:44:56.349Z,12.83
2018-02-04T00:47:22.217Z,12.53
2018-02-04T00:49:48.080Z,13.07
2018-02-04T00:52:13.988Z,12.53
2018-02-04T00:54:43.147Z,12.83
2018-02-04T00:57:08.998Z,12.40
2018-02-04T00:59:34.889Z,12.40
2018-02-04T01:02:00.774Z,12.20
2018-02-04T01:04:26.661Z,12.73
2018-02-04T01:06:53.568Z,11.90
2018-02-04T01:09:19.549Z,11.73
2018-02-04T01:11:49.116Z,11.17
2018-02-04T01:14:35.297Z,11.90
2018-02-04T01:17:01.166Z,11.87
2018-02-04T01:19:27.032Z,12.27
2018-02-04T01:21:54.931Z,13.33
2018-02-04T01:24:20.802Z,13.07
2018-02-04T01:29:53.844Z,11.80
2018-02-04T01:32:19.762Z,12.27
2018-02-04T01:34:45.660Z,12.17
2018-02-04T01:37:11.535Z,11.80
2018-02-04T01:39:37.392Z,12.07
2018-02-04T01:42:08.005Z,12.00
2018-02-04T01:44:33.889Z,11.47
2018-02-04T01:46:59.754Z,13.33
2018-02-04T01:49:25.620Z,13.50
2018-02-04T01:51:51.462Z,14.00
2018-02-04T01:54:17.360Z,14.90
2018-02-04T01:56:43.275Z,14.30
2018-02-04T01:59:09.199Z,13.80
2018-02-04T02:01:35.064Z,13.53
2018-02-04T02:04:00.963Z,13.23
2018-02-04T02:06:26.877Z,14.47
2018-02-04T02:08:53.792Z,13.20
2018-02-04T02:11:19.660Z,12.77
2018-02-04T02:13:45.502Z,13.37
2018-02-04T02:16:18.740Z,12.13
2018-02-04T02:18:44.601Z,12.13
2018-02-04T02:21:10.452Z,11.53
2018-02-04T02:23:36.326Z,12.37
2018-02-04T02:26:02.222Z,13.47
2018-02-04T02:28:34.466Z,10.83
2018-02-04T02:31:00.584Z,11.70
2018-02-04T02:33:26.512Z,11.07
2018-02-04T02:35:52.361Z,12.40
2018-02-04T02:38:18.269Z,11.13
2018-02-04T02:40:44.130Z,10.87
2018-02-04T02:43:09.986Z,12.10
2018-02-04T02:45:35.831Z,11.07
2018-02-04T02:48:01.724Z,10.67
2018-02-04T02:50:27.556Z,11.50
2018-02-04T02:53:03.849Z,12.80
2018-02-04T02:55:29.753Z,12.60
2018-02-04T02:57:55.612Z,10.90
2018-02-04T03:00:21.524Z,11.07
2018-02-04T03:02:51.845Z,9.50
2018-02-04T03:05:17.808Z,11.13
2018-02-04T03:07:43.757Z,10.40
2018-02-04T03:10:09.669Z,10.17
2018-02-04T03:12:35.556Z,10.33
2018-02-04T03:15:01.412Z,10.20
2018-02-04T03:17:27.276Z,11.40
2018-02-04T03:19:53.110Z,10.63
2018-02-04T03:22:18.959Z,10.50
2018-02-04T03:24:44.994Z,10.17
2018-02-04T03:27:10.848Z,9.77
2018-02-04T03:29:54.242Z,10.07
2018-02-04T03:32:20.095Z,9.07
2018-02-04T03:34:46.000Z,9.13
2018-02-04T03:37:11.920Z,8.23
2018-02-04T03:39:37.813Z,8.00
2018-02-04T03:42:03.659Z,6.97
2018-02-04T03:44:29.512Z,7.07
2018-02-04T03:46:55.363Z,6.33
2018-02-04T03:49:21.224Z,6.60
2018-02-04T03:52:11.570Z,6.77
2018-02-04T03:54:37.438Z,6.90
2018-02-04T03:57:03.333Z,6.63
2018-02-04T03:59:29.226Z,6.60
2018-02-04T04:01:55.100Z,6.60
2018-02-04T04:04:20.984Z,5.93
2018-02-04T04:06:50.700Z,6.27
2018-02-04T04:09:16.581Z,5.63
2018-02-04T04:11:42.449Z,5.57
2018-02-04T04:14:08.304Z,5.67
2018-02-04T04:16:34.196Z,5.30
2018-02-04T04:19:00.050Z,5.43
2018-02-04T04:21:25.904Z,5.33
2018-02-04T04:23:51.734Z,5.37
2018-02-04T04:26:17.604Z,4.70
2018-02-04T04:28:43.438Z,5.00
2018-02-04T04:31:34.584Z,4.53
2018-02-04T04:34:00.422Z,3.97
2018-02-04T04:36:26.271Z,4.23
2018-02-04T04:38:52.118Z,4.90
2018-02-04T04:41:17.992Z,4.23
2018-02-04T04:43:43.869Z,3.70
2018-02-04T04:46:09.723Z,3.97
2018-02-04T04:48:35.586Z,3.70
2018-02-04T04:51:01.438Z,3.70
2018-02-04T04:53:27.287Z,4.17
2018-02-04T04:55:53.142Z,3.83
2018-02-04T04:58:18.995Z,3.87
2018-02-04T05:00:44.860Z,3.80
2018-02-04T05:03:15.900Z,3.87
2018-02-04T05:05:46.317Z,4.40
2018-02-04T05:08:17.754Z,3.87
2018-02-04T05:10:47.370Z,3.60
2018-02-04T05:13:14.315Z,3.93
2018-02-04T05:15:40.283Z,4.07
2018-02-04T05:18:06.158Z,3.93
2018-02-04T05:20:32.018Z,3.73
2018-02-04T05:25:58.538Z,4.20
2018-02-04T05:28:24.412Z,3.97
2018-02-04T05:30:50.301Z,3.87
2018-02-04T05:33:16.180Z,3.97
2018-02-04T05:35:42.038Z,3.93
2018-02-04T05:38:07.891Z,3.67
2018-02-04T05:40:33.866Z,3.63
2018-02-04T05:43:05.496Z,3.73
2018-02-04T05:45:31.368Z,4.27
2018-02-04T05:47:57.210Z,4.60
2018-02-04T05:50:23.101Z,3.97
2018-02-04T05:52:48.995Z,4.27
2018-02-04T05:55:14.929Z,3.87
2018-02-04T05:57:40.819Z,4.23
2018-02-04T06:00:08.857Z,4.03
2018-02-04T06:02:39.526Z,4.30
2018-02-04T06:05:10.794Z,4.00
2018-02-04T06:07:38.768Z,3.80
2018-02-04T06:10:08.563Z,3.93
2018-02-04T06:12:34.534Z,4.30
2018-02-04T06:15:00.388Z,3.90
2018-02-04T06:17:26.255Z,4.20
2018-02-04T06:20:02.920Z,3.97
2018-02-04T06:22:28.810Z,4.20
2018-02-04T06:24:55.059Z,4.00
2018-02-04T06:27:22.064Z,4.53
2018-02-04T06:29:47.986Z,4.57
2018-02-04T06:34:43.515Z,4.40
2018-02-04T06:37:11.494Z,4.63
2018-02-04T06:39:39.619Z,4.60
2018-02-04T06:42:07.756Z,4.50
2018-02-04T06:44:35.874Z,4.97
2018-02-04T06:47:04.025Z,5.00
2018-02-04T06:49:33.197Z,5.10
2018-02-04T06:52:01.445Z,4.93
2018-02-04T06:54:29.849Z,5.13
2018-02-04T06:56:58.112Z,4.53
2018-02-04T06:59:26.362Z,5.00
2018-02-04T07:01:54.555Z,5.20
2018-02-04T07:04:22.728Z,5.30
2018-02-04T07:06:50.969Z,5.40
2018-02-04T07:09:19.144Z,4.80
2018-02-04T07:11:47.357Z,4.77
2018-02-04T07:14:21.147Z,5.40
2018-02-04T07:16:49.354Z,4.90
2018-02-04T07:19:17.529Z,5.37
2018-02-04T07:21:45.694Z,5.20
2018-02-04T07:24:18.914Z,5.40
2018-02-04T07:26:48.077Z,5.53
2018-02-04T07:29:16.255Z,5.60
2018-02-04T07:31:50.041Z,5.97
2018-02-04T07:34:18.181Z,5.70
2018-02-04T07:36:46.403Z,5.53
2018-02-04T07:39:14.618Z,5.40
2018-02-04T07:41:42.816Z,5.27
2018-02-04T07:44:11.125Z,5.63
2018-02-04T07:46:42.478Z,5.63
2018-02-04T07:49:10.662Z,5.63
2018-02-04T07:51:38.809Z,5.57
2018-02-04T07:54:07.120Z,5.70
2018-02-04T07:56:35.329Z,5.53
2018-02-04T07:59:04.531Z,5.80
2018-02-04T08:01:32.755Z,5.43
2018-02-04T08:04:01.014Z,5.23
2018-02-04T08:06:29.237Z,5.87
2018-02-04T08:08:57.463Z,5.23
2018-02-04T08:11:25.968Z,5.50
2018-02-04T08:13:54.259Z,5.30
2018-02-04T08:16:22.524Z,4.97
2018-02-04T08:18:50.741Z,4.97
2018-02-04T08:21:19.972Z,5.30
2018-02-04T08:23:48.141Z,5.63
2018-02-04T08:26:16.337Z,6.30
2018-02-04T08:28:44.573Z,6.37
2018-02-04T08:31:12.732Z,6.20
2018-02-04T08:33:44.741Z,5.87
2018-02-04T08:36:12.949Z,5.97
2018-02-04T08:38:41.120Z,5.47
2018-02-04T08:41:09.299Z,5.60
2018-02-04T08:43:37.507Z,5.77
2018-02-04T08:46:05.723Z,4.83
2018-02-04T08:48:33.899Z,5.20
2018-02-04T08:51:02.104Z,5.40
2018-02-04T08:53:31.310Z,5.90
2018-02-04T08:55:59.540Z,5.33
2018-02-04T08:58:27.839Z,5.63
2018-02-04T09:00:56.092Z,5.50
2018-02-04T09:03:24.289Z,6.10
2018-02-04T09:05:52.512Z,7.10
2018-02-04T09:08:20.810Z,7.00
2018-02-04T09:10:50.078Z,6.30
2018-02-04T09:13:19.308Z,6.73
2018-02-04T09:15:47.562Z,6.60
2018-02-04T09:18:15.908Z,6.43
2018-02-04T09:20:44.327Z,7.23
2018-02-04T09:23:12.700Z,6.83
2018-02-04T09:25:41.096Z,6.10
2018-02-04T09:28:11.355Z,7.23
2018-02-04T09:30:39.582Z,6.50
2018-02-04T09:33:07.942Z,6.00
2018-02-04T09:35:36.303Z,5.20
2018-02-04T09:38:04.534Z,4.50
2018-02-04T09:40:38.869Z,4.60
2018-02-04T09:43:07.498Z,4.73
2018-02-04T09:45:38.509Z,5.50
2018-02-04T09:48:07.842Z,6.07
2018-02-04T09:50:36.112Z,5.30
2018-02-04T09:53:05.367Z,5.50
2018-02-04T09:55:33.932Z,5.70
2018-02-04T09:58:02.128Z,5.30
2018-02-04T10:00:30.336Z,5.03
2018-02-04T10:02:58.619Z,22.10
2018-02-04T10:05:26.909Z,7.20
2018-02-04T10:07:55.140Z,6.17
2018-02-04T10:10:24.031Z,5.97
2018-02-04T10:12:52.944Z,6.10
2018-02-04T10:15:23.094Z,5.33
2018-02-04T10:17:51.390Z,5.50
2018-02-04T10:20:25.759Z,4.97
2018-02-04T10:22:53.939Z,5.50
2018-02-04T10:25:22.129Z,5.83
2018-02-04T10:27:50.302Z,6.53
2018-02-04T10:30:18.699Z,6.20
2018-02-04T10:32:47.201Z,6.57
2018-02-04T10:35:16.195Z,5.90
2018-02-04T10:37:44.411Z,5.90
2018-02-04T10:40:12.599Z,6.27
2018-02-04T10:42:40.823Z,7.73
2018-02-04T10:45:09.090Z,7.90
2018-02-04T10:47:37.512Z,8.33
2018-02-04T10:50:05.764Z,8.30
2018-02-04T10:52:33.935Z,8.33
2018-02-04T10:55:02.142Z,7.37
2018-02-04T10:57:30.415Z,7.50
2018-02-04T10:59:58.729Z,8.10
2018-02-04T11:02:27.018Z,7.87
2018-02-04T11:04:56.312Z,8.80
2018-02-04T11:07:24.513Z,8.47
2018-02-04T11:09:52.774Z,19.40
2018-02-04T11:12:20.986Z,13.33
2018-02-04T11:14:50.676Z,14.93
2018-02-04T11:17:18.900Z,20.50
2018-02-04T11:19:48.100Z,16.00
2018-02-04T11:22:17.376Z,10.50
2018-02-04T11:24:45.769Z,12.97
2018-02-04T11:27:15.034Z,9.23
2018-02-04T11:29:43.315Z,7.90
2018-02-04T11:32:19.398Z,8.33
2018-02-04T11:34:48.589Z,8.23
2018-02-04T11:37:16.821Z,8.47
2018-02-04T11:39:45.000Z,9.70
2018-02-04T11:42:13.185Z,9.33
2018-02-04T11:44:41.509Z,11.10
2018-02-04T11:47:10.810Z,11.97
2018-02-04T11:49:40.996Z,11.60
2018-02-04T11:52:09.242Z,12.93
2018-02-04T11:54:37.498Z,13.33
2018-02-04T11:57:06.051Z,12.57
2018-02-04T11:59:34.410Z,12.07
2018-02-04T12:02:02.716Z,12.30
2018-02-04T12:04:30.933Z,11.57
2018-02-04T12:06:59.204Z,11.97
2018-02-04T12:09:27.451Z,11.80
2018-02-04T12:11:55.735Z,12.57
2018-02-04T12:14:23.937Z,13.30
2018-02-04T12:16:52.226Z,12.10
2018-02-04T12:19:20.422Z,13.00
2018-02-04T12:21:48.617Z,12.83
2018-02-04T12:24:16.940Z,13.37
2018-02-04T12:26:45.204Z,13.13
2018-02-04T12:29:14.026Z,12.50
2018-02-04T12:31:42.296Z,11.97
2018-02-04T12:34:11.585Z,12.13
2018-02-04T12:36:39.879Z,11.37
2018-02-04T12:39:08.087Z,11.67
2018-02-04T12:41:36.334Z,11.03
2018-02-04T12:44:04.562Z,10.40
2018-02-04T12:46:32.842Z,10.43
2018-02-04T12:49:01.109Z,8.00
2018-02-04T12:51:29.350Z,8.00
2018-02-04T12:53:57.494Z,6.30
2018-02-04T12:56:25.753Z,6.10
2018-02-04T12:58:54.005Z,6.30
2018-02-04T13:01:22.258Z,6.50
2018-02-04T13:03:52.588Z,5.77
2018-02-04T13:06:22.985Z,5.83
2018-02-04T13:08:51.244Z,5.67
2018-02-04T13:11:19.554Z,6.13
2018-02-04T13:13:47.786Z,5.63
2018-02-04T13:16:15.959Z,5.23
2018-02-04T13:18:44.141Z,6.40
2018-02-04T13:21:12.334Z,5.80
2018-02-04T13:23:40.545Z,7.50
2018-02-04T13:26:08.754Z,4.27
2018-02-04T13:28:36.972Z,5.10
2018-02-04T13:31:05.451Z,4.53
2018-02-04T13:33:33.587Z,4.83
2018-02-04T13:36:01.840Z,4.70
2018-02-04T13:38:30.037Z,4.37
2018-02-04T13:40:58.209Z,4.10
2018-02-04T13:43:26.387Z,3.83
2018-02-04T13:45:54.605Z,4.40
2018-02-04T13:48:22.807Z,4.10
2018-02-04T13:50:51.031Z,4.40
2018-02-04T13:53:19.299Z,4.00
2018-02-04T13:55:47.518Z,4.17
2018-02-04T13:58:15.658Z,3.80
2018-02-04T14:00:44.719Z,4.20
2018-02-04T14:03:12.991Z,3.83
2018-02-04T14:05:41.219Z,3.90
2018-02-04T14:08:09.466Z,4.30
2018-02-04T14:10:37.749Z,4.33
2018-02-04T14:13:06.012Z,4.37
2018-02-04T14:15:34.197Z,4.37
2018-02-04T14:18:02.378Z,4.33
2018-02-04T14:20:30.565Z,3.87
2018-02-04T14:22:58.759Z,4.83
2018-02-04T14:25:26.962Z,4.07
2018-02-04T14:27:55.125Z,4.27
2018-02-04T14:30:23.316Z,4.67
2018-02-04T14:32:51.533Z,4.43
2018-02-04T14:35:19.700Z,4.40
2018-02-04T14:37:47.938Z,4.40
2018-02-04T14:40:16.114Z,4.30
2018-02-04T14:42:44.304Z,4.80
2018-02-04T14:45:12.497Z,5.10
2018-02-04T14:47:40.716Z,5.30
2018-02-04T14:50:08.910Z,5.30
2018-02-04T14:52:37.975Z,4.90
2018-02-04T14:55:06.203Z,4.47
2018-02-04T14:57:34.501Z,4.80
2018-02-04T15:00:03.001Z,4.27
2018-02-04T15:02:31.208Z,4.80
2018-02-04T15:04:59.897Z,5.03
2018-02-04T15:07:28.178Z,5.47
2018-02-04T15:09:56.380Z,5.20
2018-02-04T15:12:24.610Z,5.37
2018-02-04T15:14:53.853Z,5.43
2018-02-04T15:17:22.072Z,7.00
2018-02-04T15:19:50.316Z,8.00
2018-02-04T15:22:18.516Z,7.33
2018-02-04T15:24:47.772Z,6.33
2018-02-04T15:27:16.030Z,8.50
2018-02-04T15:29:44.258Z,7.30
2018-02-04T15:32:12.476Z,7.00
2018-02-04T15:34:42.699Z,6.87
2018-02-04T15:37:10.914Z,6.83
2018-02-04T15:39:39.107Z,7.67
2018-02-04T15:42:08.313Z,9.90
2018-02-04T15:44:37.625Z,7.97
2018-02-04T15:47:06.179Z,8.60
2018-02-04T15:49:37.902Z,13.93
2018-02-04T15:52:06.128Z,9.20
2018-02-04T15:54:34.395Z,14.17
2018-02-04T15:57:02.585Z,11.00
2018-02-04T15:59:30.911Z,9.50
2018-02-04T16:01:59.197Z,14.93
2018-02-04T16:04:27.439Z,13.27
2018-02-04T16:06:55.654Z,11.23
2018-02-04T16:09:24.890Z,10.27
2018-02-04T16:11:53.119Z,8.83
2018-02-04T16:14:21.363Z,11.90
2018-02-04T16:16:50.435Z,7.87
2018-02-04T16:19:19.642Z,6.50
2018-02-04T16:21:48.859Z,7.30
2018-02-04T16:24:17.106Z,6.90
2018-02-04T16:26:45.344Z,12.90
2018-02-04T16:29:14.540Z,7.67
2018-02-04T16:31:42.794Z,8.07
2018-02-04T16:34:10.974Z,8.37
2018-02-04T16:36:39.142Z,8.00
2018-02-04T16:39:08.311Z,7.47
2018-02-04T16:41:37.542Z,7.50
2018-02-04T16:44:06.777Z,7.80
2018-02-04T16:46:35.005Z,6.67
2018-02-04T16:49:04.078Z,7.70
2018-02-04T16:51:33.305Z,7.80
2018-02-04T16:54:01.492Z,7.80
2018-02-04T16:56:31.679Z,7.70
2018-02-04T16:58:59.885Z,7.60
2018-02-04T17:01:28.178Z,8.70
2018-02-04T17:03:56.375Z,9.53
2018-02-04T17:06:24.736Z,9.60
2018-02-04T17:08:52.987Z,16.73
2018-02-04T17:11:23.205Z,11.27
2018-02-04T17:13:52.638Z,8.23
2018-02-04T17:16:21.733Z,8.30
2018-02-04T17:18:53.672Z,8.10
2018-02-04T17:21:21.797Z,7.63
2018-02-04T17:23:54.428Z,8.10
2018-02-04T17:26:22.529Z,9.40
2018-02-04T17:28:56.716Z,9.20
2018-02-04T17:31:26.840Z,8.80
2018-02-04T17:33:56.138Z,9.63
2018-02-04T17:36:24.252Z,9.63
2018-02-04T17:38:52.370Z,8.23
2018-02-04T17:41:20.480Z,8.13
2018-02-04T17:43:48.618Z,8.17
2018-02-04T17:46:16.740Z,9.43
2018-02-04T17:48:44.914Z,8.60
2018-02-04T17:51:25.703Z,10.67
2018-02-04T17:53:53.806Z,9.67
2018-02-04T17:56:21.943Z,9.43
2018-02-04T17:58:50.083Z,9.43
2018-02-04T18:01:18.212Z,11.77
2018-02-04T18:03:46.336Z,10.77
2018-02-04T18:06:14.486Z,11.77
2018-02-04T18:08:42.601Z,11.80
2018-02-04T18:11:10.711Z,11.43
2018-02-04T18:13:38.835Z,12.33
2018-02-04T18:16:06.970Z,11.47
2018-02-04T18:18:35.114Z,12.23
2018-02-04T18:21:03.231Z,12.60
2018-02-04T18:23:31.361Z,11.80
2018-02-04T18:26:00.498Z,12.90
2018-02-04T18:28:28.633Z,12.87
2018-02-04T18:30:59.774Z,12.13
2018-02-04T18:33:29.823Z,12.50
2018-02-04T18:35:57.959Z,15.00
2018-02-04T18:38:38.541Z,13.00
2018-02-04T18:41:06.691Z,13.57
2018-02-04T18:43:42.356Z,14.03
2018-02-04T18:46:10.468Z,13.87
2018-02-04T18:48:38.581Z,13.43
2018-02-04T18:51:06.707Z,14.23
2018-02-04T18:53:34.807Z,15.03
2018-02-04T18:56:09.178Z,13.13
2018-02-04T18:58:37.273Z,13.00
2018-02-04T19:01:07.370Z,15.27
2018-02-04T19:03:35.474Z,15.23
2018-02-04T19:06:03.609Z,13.33
2018-02-04T19:08:37.214Z,13.67
2018-02-04T19:11:05.336Z,14.33
2018-02-04T19:13:33.462Z,14.80
2018-02-04T19:16:01.584Z,13.53
2018-02-04T19:18:33.515Z,13.23
2018-02-04T19:21:01.641Z,13.67
2018-02-04T19:23:35.615Z,14.07
2018-02-04T19:26:04.688Z,14.73
2018-02-04T19:28:32.836Z,14.23
2018-02-04T19:31:05.028Z,14.30
2018-02-04T19:33:33.138Z,14.87
2018-02-04T19:38:58.607Z,14.67
2018-02-04T19:41:26.741Z,14.53
2018-02-04T19:44:12.575Z,14.80
2018-02-04T19:46:40.707Z,14.97
2018-02-04T19:49:19.346Z,16.00
2018-02-04T19:51:59.070Z,16.53
2018-02-04T19:54:37.618Z,15.70
2018-02-04T19:57:05.748Z,15.70
2018-02-04T19:59:39.951Z,15.23
2018-02-04T20:02:24.480Z,16.93
2018-02-04T20:04:52.621Z,16.77
2018-02-04T20:07:28.190Z,16.27
2018-02-04T20:09:56.395Z,16.30
2018-02-04T20:12:24.516Z,16.10
2018-02-04T20:14:53.582Z,16.50
2018-02-04T20:17:21.704Z,16.83
2018-02-04T20:19:49.818Z,16.93
2018-02-04T20:22:18.043Z,18.00
2018-02-04T20:24:46.196Z,18.47
2018-02-04T20:27:19.222Z,17.70
2018-02-04T20:29:47.363Z,18.10
2018-02-04T20:32:27.201Z,17.87
2018-02-04T20:34:57.319Z,18.73
2018-02-04T20:37:32.803Z,17.53
2018-02-04T20:40:00.920Z,18.43
2018-02-04T20:42:29.993Z,16.93
2018-02-04T20:44:58.127Z,18.63
2018-02-04T20:47:36.264Z,18.60
2018-02-04T20:50:04.381Z,17.73
2018-02-04T20:52:34.466Z,17.57
2018-02-04T20:55:02.560Z,17.80
2018-02-04T20:57:34.595Z,18.27
2018-02-04T21:00:02.725Z,17.80
2018-02-04T21:02:34.022Z,18.10
2018-02-04T21:05:02.137Z,17.27
2018-02-04T21:07:34.615Z,17.90
2018-02-04T21:10:19.587Z,17.50
2018-02-04T21:13:00.310Z,17.77
2018-02-04T21:15:28.895Z,17.83
2018-02-04T21:17:57.004Z,17.23
2018-02-04T21:20:26.055Z,18.37
2018-02-04T21:22:55.979Z,18.10
2018-02-04T21:25:24.080Z,17.70
2018-02-04T21:27:57.627Z,17.67
2018-02-04T21:30:25.762Z,18.40
2018-02-04T21:32:57.246Z,16.93
2018-02-04T21:35:25.376Z,17.83
2018-02-04T21:37:53.490Z,17.93
2018-02-04T21:40:21.598Z,18.90
2018-02-04T21:42:51.682Z,17.60
2018-02-04T21:45:20.016Z,18.00
2018-02-04T21:47:48.151Z,18.80
2018-02-04T21:50:16.265Z,17.57
2018-02-04T21:52:44.397Z,16.60
2018-02-04T21:55:12.516Z,17.70
2018-02-04T21:57:47.609Z,17.70
2018-02-04T22:00:15.720Z,17.50
2018-02-04T22:02:43.827Z,18.63
2018-02-04T22:05:11.938Z,17.57
2018-02-04T22:07:40.060Z,18.70
2018-02-04T22:10:08.177Z,18.43
2018-02-04T22:12:36.275Z,19.27
2018-02-04T22:15:04.398Z,18.33
2018-02-04T22:17:32.490Z,17.83
2018-02-04T22:20:10.674Z,17.37
2018-02-04T22:22:39.150Z,18.03
2018-02-04T22:25:18.897Z,17.73
2018-02-04T22:27:47.022Z,17.33
2018-02-04T22:30:15.136Z,17.23
2018-02-04T22:32:43.260Z,17.70
2018-02-04T22:35:12.317Z,16.60
2018-02-04T22:37:40.434Z,16.73
2018-02-04T22:40:08.569Z,16.93
2018-02-04T22:42:44.490Z,17.13
2018-02-04T22:45:22.601Z,16.83
2018-02-04T22:48:03.898Z,17.50
2018-02-04T22:50:32.024Z,17.37
2018-02-04T22:53:17.134Z,16.70
2018-02-04T22:55:45.594Z,17.40
2018-02-04T22:58:13.698Z,17.27
2018-02-04T23:00:43.745Z,16.47
2018-02-04T23:03:18.931Z,17.77
2018-02-04T23:05:47.962Z,17.13
2018-02-04T23:08:17.137Z,17.30
2018-02-04T23:10:45.346Z,17.80
2018-02-04T23:13:13.458Z,17.20
2018-02-04T23:15:41.581Z,17.03
2018-02-04T23:18:09.699Z,17.50
2018-02-04T23:20:40.798Z,18.00
2018-02-04T23:23:08.929Z,18.43
2018-02-04T23:25:43.866Z,17.57
2018-02-04T23:28:11.984Z,18.33
2018-02-04T23:30:40.087Z,18.53
2018-02-04T23:33:09.148Z,18.33
2018-02-04T23:35:37.258Z,17.67
2018-02-04T23:38:06.307Z,17.20
2018-02-04T23:40:41.706Z,19.10
2018-02-04T23:43:10.749Z,18.27
2018-02-04T23:45:40.880Z,18.63
2018-02-04T23:48:08.978Z,19.27
2018-02-04T23:50:43.839Z,19.10
2018-02-04T23:53:11.956Z,19.70
2018-02-04T23:55:42.068Z,19.33
2018-02-04T23:58:10.189Z,19.23
